Conquistador — WDE8212 — position and weather

sailwx.info

Track history (hours):
 
Tides and Currents Weather Stations Pressure Air Temp Water Temp Dewpoint Dewpoint Depression Visibility Wind Speed Wind Dir Waves Ship Positions

Conquistador

More information available from US FCC via Universal Licensing System and Coast Guard Vessel Documentation Center.

Last reported at 2014-Aug-29 00:31 UTC. Time now 2014-Aug-29 05:38 UTC.
Position N 33°21' W 118°19'.

Length 22 m.

Type: Pleasure craft. MMSI: 367402860.

Date/timePositionNaut miles runAvg speedWind from/ knotsBaromVisibWave heightAir tempDewpointWater temp
2014-Aug-29 00:31N 33°21' W 118°19'0 0.0
2014-Aug-28 22:12N 33°21' W 118°19'1 0.5
2014-Aug-28 19:22N 33°22' W 118°18'2310.3
2014-Aug-28 17:05N 33°34' W 117°54'3 0.2
2014-Aug-28 03:30N 33°37' W 117°56'29 1.0
2014-Aug-26 22:24N 33°12' W 117°38'8 9.7
2014-Aug-26 21:33N 33°05' W 117°33'1010.5
2014-Aug-26 20:33N 32°56' W 117°27'8 8.2
2014-Aug-26 19:33N 32°48' W 117°23'10 3.2
2014-Aug-26 16:30N 32°44' W 117°12'0 0.0
2014-Aug-26 10:12N 32°44' W 117°12'0 0.0
2014-Aug-26 09:18N 32°44' W 117°12'0 0.0
2014-Aug-26 08:18N 32°44' W 117°12'0 0.0
2014-Aug-26 05:30N 32°44' W 117°12'0 0.0
2014-Aug-26 04:24N 32°44' W 117°12'0 0.0
2014-Aug-24 18:06N 32°44' W 117°12'0 0.0
2014-Aug-24 16:30N 32°44' W 117°12'0 0.0
2014-Aug-24 09:24N 32°44' W 117°12'0 0.0
2014-Aug-24 07:06N 32°44' W 117°12'0 0.0
2014-Aug-24 06:30N 32°44' W 117°12'0 0.0
2014-Aug-24 05:24N 32°44' W 117°12'0 0.0
2014-Aug-24 04:30N 32°44' W 117°12'0 0.0
2014-Aug-23 19:24N 32°44' W 117°12'0 0.0
2014-Aug-22 20:30N 32°44' W 117°12'0 0.0
2014-Aug-22 19:30N 32°44' W 117°12'0 0.0
2014-Aug-22 09:18N 32°44' W 117°12'0 0.0
2014-Aug-22 07:23N 32°44' W 117°12'0 0.0
2014-Aug-22 06:11N 32°44' W 117°12'0 0.0
2014-Aug-22 04:29N 32°44' W 117°12'0 0.0
2014-Aug-21 16:17N 32°44' W 117°12'0 0.0
2014-Aug-21 11:05N 32°44' W 117°12'0 0.0
2014-Aug-21 09:05N 32°44' W 117°12'0 0.0
2014-Aug-21 05:29N 32°44' W 117°12'0 0.0
2014-Aug-21 04:29N 32°44' W 117°12'0 0.0
2014-Aug-21 03:17N 32°44' W 117°12'0 0.0
2014-Aug-20 11:11N 32°44' W 117°12'0 0.0
2014-Aug-20 10:29N 32°44' W 117°12'0 0.0
2014-Aug-20 09:29N 32°44' W 117°12'0 0.0
2014-Aug-20 08:17N 32°44' W 117°12'0 0.0
2014-Aug-20 06:05N 32°44' W 117°12'0 0.0
2014-Aug-20 05:23N 32°44' W 117°12'0 0.0
2014-Aug-20 04:11N 32°44' W 117°12'0 0.0
2014-Aug-19 11:05N 32°44' W 117°12'0 0.0
2014-Aug-19 10:29N 32°44' W 117°12'0 0.0
2014-Aug-19 09:11N 32°44' W 117°12'0 0.0
2014-Aug-19 08:11N 32°44' W 117°12'0 0.0
2014-Aug-19 07:23N 32°44' W 117°12'0 0.0
2014-Aug-19 06:29N 32°44' W 117°12'0 0.0
2014-Aug-19 05:29N 32°44' W 117°12'0 0.0
2014-Aug-19 04:17N 32°44' W 117°12'0 0.0
2014-Aug-19 03:17N 32°44' W 117°12'0 0.0
2014-Aug-19 02:17N 32°44' W 117°12'  
Track history (hours):
 
Tides and Currents Weather Stations Pressure Air Temp Water Temp Dewpoint Dewpoint Depression Visibility Wind Speed Wind Dir Waves Ship Positions

Conquistador

More information available from US FCC via Universal Licensing System and Coast Guard Vessel Documentation Center.

Last reported at 2014-Aug-29 00:31 UTC. Time now 2014-Aug-29 05:38 UTC.
Position N 33°21' W 118°19'.

Length 22 m.

Type: Pleasure craft. MMSI: 367402860.

Date/timePositionNaut miles runAvg speedWind from/ knotsBaromVisibWave heightAir tempDewpointWater temp
2014-Aug-29 00:31N 33°21' W 118°19'0 0.0
2014-Aug-28 22:12N 33°21' W 118°19'1 0.5
2014-Aug-28 19:22N 33°22' W 118°18'2310.3
2014-Aug-28 17:05N 33°34' W 117°54'3 0.2
2014-Aug-28 03:30N 33°37' W 117°56'29 1.0
2014-Aug-26 22:24N 33°12' W 117°38'8 9.7
2014-Aug-26 21:33N 33°05' W 117°33'1010.5
2014-Aug-26 20:33N 32°56' W 117°27'8 8.2
2014-Aug-26 19:33N 32°48' W 117°23'10 3.2
2014-Aug-26 16:30N 32°44' W 117°12'0 0.0
2014-Aug-26 10:12N 32°44' W 117°12'0 0.0
2014-Aug-26 09:18N 32°44' W 117°12'0 0.0
2014-Aug-26 08:18N 32°44' W 117°12'0 0.0
2014-Aug-26 05:30N 32°44' W 117°12'0 0.0
2014-Aug-26 04:24N 32°44' W 117°12'0 0.0
2014-Aug-24 18:06N 32°44' W 117°12'0 0.0
2014-Aug-24 16:30N 32°44' W 117°12'0 0.0
2014-Aug-24 09:24N 32°44' W 117°12'0 0.0
2014-Aug-24 07:06N 32°44' W 117°12'0 0.0
2014-Aug-24 06:30N 32°44' W 117°12'0 0.0
2014-Aug-24 05:24N 32°44' W 117°12'0 0.0
2014-Aug-24 04:30N 32°44' W 117°12'0 0.0
2014-Aug-23 19:24N 32°44' W 117°12'0 0.0
2014-Aug-22 20:30N 32°44' W 117°12'0 0.0
2014-Aug-22 19:30N 32°44' W 117°12'0 0.0
2014-Aug-22 09:18N 32°44' W 117°12'0 0.0
2014-Aug-22 07:23N 32°44' W 117°12'0 0.0
2014-Aug-22 06:11N 32°44' W 117°12'0 0.0
2014-Aug-22 04:29N 32°44' W 117°12'0 0.0
2014-Aug-21 16:17N 32°44' W 117°12'0 0.0
2014-Aug-21 11:05N 32°44' W 117°12'0 0.0
2014-Aug-21 09:05N 32°44' W 117°12'0 0.0
2014-Aug-21 05:29N 32°44' W 117°12'0 0.0
2014-Aug-21 04:29N 32°44' W 117°12'0 0.0
2014-Aug-21 03:17N 32°44' W 117°12'0 0.0
2014-Aug-20 11:11N 32°44' W 117°12'0 0.0
2014-Aug-20 10:29N 32°44' W 117°12'0 0.0
2014-Aug-20 09:29N 32°44' W 117°12'0 0.0
2014-Aug-20 08:17N 32°44' W 117°12'0 0.0
2014-Aug-20 06:05N 32°44' W 117°12'0 0.0
2014-Aug-20 05:23N 32°44' W 117°12'0 0.0
2014-Aug-20 04:11N 32°44' W 117°12'0 0.0
2014-Aug-19 11:05N 32°44' W 117°12'0 0.0
2014-Aug-19 10:29N 32°44' W 117°12'0 0.0
2014-Aug-19 09:11N 32°44' W 117°12'0 0.0
2014-Aug-19 08:11N 32°44' W 117°12'0 0.0
2014-Aug-19 07:23N 32°44' W 117°12'0 0.0
2014-Aug-19 06:29N 32°44' W 117°12'0 0.0
2014-Aug-19 05:29N 32°44' W 117°12'0 0.0
2014-Aug-19 04:17N 32°44' W 117°12'0 0.0
2014-Aug-19 03:17N 32°44' W 117°12'0 0.0
2014-Aug-19 02:17N 32°44' W 117°12'  

Dump ship's entire track history